Terminal Aerodrome Forecast
Issued by NWS

Home | Current Version | Previous Version | Text Only | Print | Product List | Glossary On
Versions: 1 2 3 4 5 6 7 8 9 10 11 12 13 14 15 16 17 18 19 20 21 22 23 24 25 26 27 28 29 30
000
FTUS45 KGJT 072335
TAFMTJ
TAF
KMTJ 072335Z 0800/0824 13009KT P6SM VCTS SCT060 BKN080CB
      TEMPO 0800/0802 VRB15G25KT -SHRA SCT060 BKN080
     FM080700 14005KT P6SM VCSH BKN080
     FM081600 03008KT P6SM VCTS BKN080CB=

USA.gov is the U.S. government's official web portal to all federal, state and local government web resources and services.